Time;durP1;ratioP1;P1;durP2;ratioP2;P2;SDS_P1;SDS_P2;PMS_P1;PMS_P2;Temp;Humidity;BMP_temperature;BMP_pressure;BME280_temperature;BME280_humidity;BME280_pressure;Samples;Min_cycle;Max_cycle;Signal;HPM_P1;HPM_P2
2021/12/17 00:06:53;;;;;;;45.35;17.00;;;9.60;99.90;;;;;;6691241;88;20304;-76
2021/12/17 00:16:56;;;;;;;56.00;17.40;;;9.50;99.90;;;;;;6703290;88;20212;-76
2021/12/17 00:57:54;;;;;;;20.55;8.52;;;9.30;99.90;;;;;;6697026;88;20255;-76
2021/12/17 01:07:57;;;;;;;15.93;7.83;;;9.40;99.90;;;;;;6688166;88;20789;-76
2021/12/17 01:18:03;;;;;;;15.77;5.80;;;9.30;99.90;;;;;;6683495;88;20660;-77
2021/12/17 01:48:36;;;;;;;9.60;5.07;;;9.30;99.90;;;;;;6690333;88;20193;-77
2021/12/17 02:08:58;;;;;;;7.57;3.62;;;9.40;99.90;;;;;;6688805;88;20179;-77
2021/12/17 02:40:05;;;;;;;10.35;4.15;;;9.20;99.90;;;;;;6697027;88;21034;-77
2021/12/17 02:50:08;;;;;;;9.45;4.93;;;9.20;99.90;;;;;;6695852;88;20228;-77
2021/12/17 03:00:09;;;;;;;9.90;5.28;;;9.10;99.90;;;;;;6698508;88;20204;-77
2021/12/17 03:10:12;;;;;;;9.02;4.97;;;9.10;99.90;;;;;;6704502;88;20889;-77
2021/12/17 03:30:31;;;;;;;12.32;5.72;;;9.00;99.90;;;;;;6703964;88;20239;-77
2021/12/17 03:40:33;;;;;;;11.80;5.47;;;9.00;99.90;;;;;;6704947;88;20208;-77
2021/12/17 03:50:36;;;;;;;11.18;5.87;;;9.00;99.90;;;;;;6704142;88;20317;-77
2021/12/17 04:00:37;;;;;;;12.95;5.55;;;9.00;99.90;;;;;;6703668;88;20193;-76
2021/12/17 04:10:42;;;;;;;15.07;6.35;;;9.00;99.90;;;;;;6701813;88;20211;-77
2021/12/17 04:20:43;;;;;;;12.50;5.50;;;9.00;99.90;;;;;;6703179;88;20638;-77
2021/12/17 04:30:44;;;;;;;16.37;6.60;;;9.00;99.90;;;;;;6703601;88;20232;-77
2021/12/17 04:40:45;;;;;;;13.50;6.37;;;9.00;99.90;;;;;;6702839;88;20203;-77
2021/12/17 05:01:11;;;;;;;13.40;5.78;;;9.00;99.90;;;;;;6702822;88;20742;-77
2021/12/17 05:18:13;;;;;;;11.02;5.22;;;9.00;99.90;;;;;;6702723;88;20203;-77
2021/12/17 05:21:44;;;;;;;11.00;5.60;;;8.90;99.90;;;;;;6700896;88;20209;-77
2021/12/17 05:31:45;;;;;;;10.20;5.25;;;8.90;99.90;;;;;;6701285;88;20209;-77
2021/12/17 05:41:46;;;;;;;12.10;5.60;;;9.00;99.90;;;;;;6716580;77;20228;-77
2021/12/17 05:51:48;;;;;;;10.80;4.25;;;8.80;99.90;;;;;;6718080;88;20312;-77
2021/12/17 06:01:49;;;;;;;7.62;3.87;;;8.90;99.90;;;;;;6721464;88;20189;-77
2021/12/17 06:11:49;;;;;;;7.75;3.62;;;8.90;99.90;;;;;;6719315;88;20189;-77
2021/12/17 06:21:50;;;;;;;6.93;3.78;;;9.00;99.90;;;;;;6717410;88;20294;-77
2021/12/17 06:31:50;;;;;;;8.52;3.78;;;8.80;99.90;;;;;;6719542;88;20695;-77
2021/12/17 06:41:51;;;;;;;8.30;3.95;;;8.70;99.90;;;;;;6719917;88;20713;-78
2021/12/17 07:33:15;;;;;;;6.57;3.92;;;8.80;99.90;;;;;;6719216;88;20312;-77
2021/12/17 07:43:26;;;;;;;8.50;4.70;;;9.00;99.90;;;;;;6719892;88;20251;-77
2021/12/17 07:53:26;;;;;;;7.47;3.92;;;8.80;99.90;;;;;;6713992;88;22547;-77
2021/12/17 08:03:27;;;;;;;8.35;3.60;;;8.70;99.90;;;;;;6717586;88;20205;-77
2021/12/17 08:13:31;;;;;;;7.62;3.80;;;8.80;99.90;;;;;;6720520;88;20181;-77
2021/12/17 08:33:51;;;;;;;6.93;3.75;;;8.80;99.90;;;;;;6715822;88;20178;-77
2021/12/17 08:43:51;;;;;;;5.87;3.62;;;9.00;99.90;;;;;;6718611;88;20214;-78
2021/12/17 08:53:52;;;;;;;8.50;4.55;;;9.10;99.90;;;;;;6716376;88;20213;-77
2021/12/17 09:03:52;;;;;;;8.63;4.55;;;9.00;99.90;;;;;;6715813;88;20491;-77
2021/12/17 09:13:56;;;;;;;11.15;5.82;;;9.10;99.90;;;;;;6719296;88;20241;-77
2021/12/17 09:23:57;;;;;;;10.35;5.28;;;8.90;99.90;;;;;;6709858;88;20214;-77
2021/12/17 09:33:58;;;;;;;8.23;4.53;;;9.00;99.90;;;;;;6715568;88;20192;-78
2021/12/17 09:43:59;;;;;;;10.07;4.53;;;9.00;99.90;;;;;;6715594;88;20219;-77
2021/12/17 09:53:59;;;;;;;9.15;4.55;;;9.00;99.90;;;;;;6719511;88;20511;-77
2021/12/17 10:04:28;;;;;;;9.68;6.00;;;9.10;99.90;;;;;;6718678;88;20202;-77
2021/12/17 10:14:29;;;;;;;11.00;5.65;;;9.20;99.90;;;;;;6714453;88;20388;-77
2021/12/17 10:24:29;;;;;;;10.95;6.47;;;9.20;99.90;;;;;;6713884;88;20661;-77
2021/12/17 10:34:30;;;;;;;12.05;7.10;;;9.30;99.90;;;;;;6716231;88;20370;-77
2021/12/17 10:44:30;;;;;;;13.13;7.85;;;9.30;99.90;;;;;;6718644;88;20237;-77
2021/12/17 10:54:32;;;;;;;13.90;7.30;;;9.40;99.90;;;;;;6731661;88;20214;-77
2021/12/17 11:04:35;;;;;;;12.18;7.85;;;9.20;99.90;;;;;;6719094;88;20227;-77
2021/12/17 11:14:36;;;;;;;12.40;6.78;;;9.50;99.90;;;;;;6718127;88;20197;-77
2021/12/17 11:24:37;;;;;;;12.27;6.70;;;9.50;99.90;;;;;;6718616;88;20192;-78
2021/12/17 11:34:38;;;;;;;12.43;7.07;;;9.50;99.90;;;;;;6722126;88;20686;-78
2021/12/17 11:44:41;;;;;;;14.80;7.03;;;9.80;99.90;;;;;;6717872;88;20214;-77
2021/12/17 11:54:42;;;;;;;19.17;8.77;;;9.50;99.90;;;;;;6719559;88;20284;-76
2021/12/17 12:04:48;;;;;;;14.43;8.50;;;9.90;99.90;;;;;;6714340;88;20398;-76
2021/12/17 12:14:49;;;;;;;15.88;8.80;;;10.00;99.90;;;;;;6710292;88;20938;-76
2021/12/17 12:25:28;;;;;;;16.83;9.67;;;10.00;99.90;;;;;;6715781;88;20331;-77
2021/12/17 12:35:31;;;;;;;19.60;11.02;;;9.80;99.90;;;;;;6717961;88;20507;-76
2021/12/17 12:45:32;;;;;;;22.48;12.43;;;10.00;99.90;;;;;;6716365;88;20753;-77
2021/12/17 12:55:39;;;;;;;26.80;12.77;;;9.70;99.90;;;;;;6715762;88;20218;-76
2021/12/17 13:05:42;;;;;;;25.50;14.00;;;9.80;99.90;;;;;;6715116;88;20197;-77
2021/12/17 13:15:50;;;;;;;24.52;13.55;;;9.70;99.90;;;;;;6712699;88;20845;-76
2021/12/17 13:26:23;;;;;;;27.15;14.05;;;9.60;99.90;;;;;;6712960;88;20392;-76
2021/12/17 13:36:24;;;;;;;29.48;14.50;;;9.60;99.90;;;;;;6712074;88;20216;-76
2021/12/17 13:46:27;;;;;;;33.30;14.93;;;9.60;99.90;;;;;;6716405;88;20214;-77
2021/12/17 13:56:28;;;;;;;27.37;14.10;;;9.60;99.90;;;;;;6716241;88;20177;-77
2021/12/17 14:06:36;;;;;;;31.10;14.05;;;9.60;99.90;;;;;;6713327;88;20205;-77
2021/12/17 14:16:41;;;;;;;31.92;14.18;;;9.50;99.90;;;;;;6716519;88;20571;-77
2021/12/17 14:26:46;;;;;;;30.83;14.23;;;9.30;99.90;;;;;;6715063;88;20255;-77
2021/12/17 14:36:47;;;;;;;32.30;14.47;;;9.20;99.90;;;;;;6714168;88;20206;-77
2021/12/17 14:46:57;;;;;;;32.60;13.15;;;9.20;99.90;;;;;;6715145;88;20659;-77
2021/12/17 15:07:18;;;;;;;31.45;14.05;;;9.40;99.90;;;;;;6714997;88;20223;-75
2021/12/17 15:17:20;;;;;;;28.83;13.45;;;9.40;99.90;;;;;;6714049;88;20214;-75
2021/12/17 15:27:21;;;;;;;28.52;13.07;;;9.50;99.90;;;;;;6715791;88;20236;-75
2021/12/17 15:37:22;;;;;;;32.40;13.50;;;9.50;99.90;;;;;;6715814;88;20344;-76
2021/12/17 15:47:22;;;;;;;32.60;13.70;;;9.40;99.90;;;;;;6715379;88;20636;-75
2021/12/17 15:57:23;;;;;;;32.88;14.30;;;9.40;99.90;;;;;;6717116;88;20218;-75
2021/12/17 16:07:24;;;;;;;33.13;13.75;;;9.20;99.90;;;;;;6719913;88;20333;-75
2021/12/17 16:27:43;;;;;;;43.65;15.68;;;9.00;99.90;;;;;;6718073;88;20779;-76
2021/12/17 16:37:44;;;;;;;40.03;15.80;;;9.00;99.90;;;;;;6718436;88;20250;-76
2021/12/17 16:47:45;;;;;;;36.73;15.17;;;9.20;99.90;;;;;;6722650;88;20219;-77
2021/12/17 16:57:45;;;;;;;37.03;14.48;;;8.90;99.90;;;;;;6715298;88;20520;-75
2021/12/17 17:07:46;;;;;;;34.10;14.82;;;8.90;99.90;;;;;;6715842;88;20185;-77
2021/12/17 17:17:46;;;;;;;38.97;15.77;;;8.80;99.90;;;;;;6715668;88;20314;-76
2021/12/17 17:27:47;;;;;;;44.47;16.02;;;8.70;99.90;;;;;;6714444;88;20215;-77
2021/12/17 17:37:47;;;;;;;42.28;16.48;;;8.60;99.90;;;;;;6714811;88;20238;-77
2021/12/17 17:47:50;;;;;;;43.25;17.30;;;8.50;99.90;;;;;;6716249;88;20202;-77
2021/12/17 17:57:51;;;;;;;43.50;17.12;;;8.50;99.90;;;;;;6715580;88;20700;-77
2021/12/17 18:07:52;;;;;;;40.03;16.58;;;8.40;99.90;;;;;;6720355;88;20336;-75
2021/12/17 18:17:54;;;;;;;41.65;16.23;;;8.20;99.90;;;;;;6719529;88;20623;-76
2021/12/17 18:27:54;;;;;;;37.60;15.90;;;8.30;99.90;;;;;;6715136;88;20251;-75
2021/12/17 18:37:56;;;;;;;41.78;15.70;;;8.00;99.90;;;;;;6725493;88;20182;-75
2021/12/17 18:47:56;;;;;;;37.38;15.68;;;7.90;99.90;;;;;;6729846;88;20264;-75
2021/12/17 18:57:57;;;;;;;39.60;15.23;;;7.70;99.90;;;;;;6714658;88;20216;-76
2021/12/17 19:07:58;;;;;;;41.30;17.23;;;7.70;99.90;;;;;;6729879;88;20193;-75
2021/12/17 19:17:59;;;;;;;36.53;15.02;;;7.60;99.90;;;;;;6719797;88;20641;-76
2021/12/17 19:28:00;;;;;;;41.03;15.85;;;7.50;99.90;;;;;;6717943;88;20210;-76
2021/12/17 19:38:03;;;;;;;30.92;14.52;;;7.30;99.90;;;;;;6717662;88;20182;-76
2021/12/17 19:49:44;;;;;;;30.77;14.07;;;7.10;99.90;;;;;;6717467;88;20292;-75
2021/12/17 19:58:33;;;;;;;27.87;12.27;;;6.90;99.90;;;;;;6717876;88;20296;-75
2021/12/17 20:08:34;;;;;;;24.08;11.93;;;6.70;99.90;;;;;;6716366;88;20252;-76
2021/12/17 20:18:34;;;;;;;20.75;10.48;;;6.60;99.90;;;;;;6718602;88;20820;-75
2021/12/17 20:28:38;;;;;;;18.90;9.23;;;6.50;99.90;;;;;;6718924;88;20296;-76
2021/12/17 20:38:39;;;;;;;16.27;8.27;;;6.60;99.90;;;;;;6719739;88;20243;-75
2021/12/17 20:48:40;;;;;;;16.35;8.85;;;6.60;99.90;;;;;;6718524;88;20762;-76
2021/12/17 20:58:41;;;;;;;16.33;8.73;;;6.20;99.90;;;;;;6714532;88;20197;-75
2021/12/17 21:08:44;;;;;;;19.10;10.25;;;6.00;99.90;;;;;;6713959;88;20976;-76
2021/12/17 21:18:45;;;;;;;20.23;11.23;;;5.80;99.90;;;;;;6719242;88;20871;-76
2021/12/17 21:28:45;;;;;;;19.37;9.88;;;5.70;99.90;;;;;;6724471;88;20205;-76
2021/12/17 21:38:46;;;;;;;22.67;11.18;;;5.60;99.90;;;;;;6721123;88;20220;-76
2021/12/17 21:48:48;;;;;;;27.17;11.45;;;5.50;99.90;;;;;;6723081;88;20661;-75
2021/12/17 21:58:49;;;;;;;24.00;10.93;;;5.30;99.90;;;;;;6721223;88;20196;-76
2021/12/17 22:08:49;;;;;;;20.52;10.63;;;5.20;99.90;;;;;;6717952;88;20653;-75
2021/12/17 22:18:50;;;;;;;23.02;10.30;;;5.10;99.90;;;;;;6721459;88;20655;-75
2021/12/17 22:28:50;;;;;;;19.40;10.10;;;4.90;99.90;;;;;;6721209;88;20238;-75
2021/12/17 22:38:54;;;;;;;22.13;10.90;;;4.90;99.90;;;;;;6722925;88;20629;-76
2021/12/17 22:48:54;;;;;;;20.25;10.15;;;4.80;99.90;;;;;;6723982;88;20569;-76
2021/12/17 22:58:56;;;;;;;22.33;11.07;;;4.70;99.90;;;;;;6725720;88;20865;-76
2021/12/17 23:18:59;;;;;;;20.42;10.48;;;4.60;99.90;;;;;;6721603;88;20263;-76
2021/12/17 23:29:21;;;;;;;17.85;9.68;;;4.50;99.90;;;;;;6735474;76;20381;-79
2021/12/17 23:39:22;;;;;;;16.83;9.48;;;4.60;99.90;;;;;;6722487;88;20202;-79
2021/12/17 23:49:23;;;;;;;19.15;9.30;;;4.40;99.90;;;;;;6722120;88;20242;-80
2021/12/17 23:59:23;;;;;;;17.55;8.85;;;4.40;99.90;;;;;;6726012;88;20331;-79
